Category Archives: Jewelz Blu

Jewelz Blu – OnlyFans – Siterip – Ubiqfile

784 clips – 173 GB

All Screenshots on ubiqfile.com:
photos.rar – 1.3 GB
screens.rar – 278.3 MB

Videos on ubiqfile.com:

19-01-22 2961343 Slutty school girl playing around 1920×1080.mp4 – 63.0 MB
19-01-27 3005537 I love sucking cock ;&_41; imagine if this was yours<3 1280×720.mp4 – 49.5 MB
19-02-18 3229347 Pin wheel, ball gagged, and hitachi bts clip 1080×1920.mp4 – 51.4 MB
19-03-05 3402229 fucking myself with a butt plug and playing with my hitachi till I cum~this&_40;..&_41; 1920×1080.mp4 – 84.1 MB
19-03-12 3477775 A sluts fave lil treat 624×1232.mp4 – 10.9 MB
19-03-13 3490679 _bts with my bb Alix 624×1232.mp4 – 3.1 MB
19-03-14 3508031 Pre-sale open for my video with Sam Shock on my ManyVids. First official b&_40;..&_41; 624×1232.mp4 – 19.0 MB
19-03-26 3659384 Dripping in gold gg threesome with Madison Ivy and Alix Lynx. 960×540.mp4 – 30.9 MB
19-03-26 3659599 The after party is always fun especially when youre in the jacuzzi. 960×540.mp4 – 36.2 MB
19-03-26 3659889 Mermaids play 960×540.mp4 – 32.0 MB
19-03-26 3659925 Dripping in gold to dripping wet 960×540.mp4 – 38.2 MB
19-03-30 3710986 I treat that cock right in so many ways. 1280×720.mp4 – 167.6 MB
19-04-03 3752116 Bad kitties ~~~ love being an hentai slut with my babe 624×1232.mp4 – 10.0 MB
19-04-06 3797461 Stimulate my senses ~ clips from my next solo scene 1280×720.mp4 – 107.2 MB
19-04-18 3971601 I need to film another pov bj, but heres a good teaser of my skills 1080×1920.mp4 – 117.9 MB
19-04-28 4104901 Im Blu for a reason 406×720.mp4 – 5.2 MB
19-05-02 4175253 Bong rips and hitachi orgasms 1280×720.mp4 – 47.3 MB
19-05-15 4374175 Training this tight hole 1080×1920.mp4 – 85.8 MB
19-05-17 4408571 Lets get wet 624×1232.mp4 – 10.1 MB
19-05-20 4448850 Sucking daddys cock on the balcony at the cosmo 624×1232.mp4 – 12.0 MB
19-05-28 4588635 Throat fuck me like you mean it. 1080×1920.mp4 – 43.9 MB
19-05-31 4646500 teaser clip for my next bg video~~~ i love this cock. 1920×1080.mp4 – 34.0 MB
19-06-01 4670448 Post cam hitachi scissor fun with Samantha Knoxx 1280×720.mp4 – 90.8 MB
19-06-11 4848092 360×712.mp4 – 1.3 MB
19-06-21 5039443 Some Snapchat cock sucking fun pt 1 624×1232.mp4 – 21.7 MB
19-06-21 5039457 Cock sucker PT. 2 624×1232.mp4 – 17.3 MB
19-06-21 5039475 Cock Sucker PT. 3 624×1232.mp4 – 15.2 MB
19-06-27 5162898 A little teaser ~ 1080×1920.mp4 – 100.0 MB
19-06-29 5211228 Cum show from snapchat~~I love making myself cum. 404×720.mp4 – 249.6 MB
19-07-05 5318118 Porn Star orgy featuring Jill Kassidy, Sabina Rouge, Aidra Foxx, Jenna Foxx&_40;..&_41; 1280×720.mp4 – 77.9 MB
19-07-14 5506851 _bts on set from shooting in Florida ~ with Kali Roses and JMac 1280×720.mp4 – 17.5 MB
19-07-21 5656151 Its time to play with all my holes 1280×720.mp4 – 276.8 MB
19-08-06 5984312 Lil pussy tease 1232×624.mp4 – 17.0 MB
19-08-06 5984558 Bass makes dat booty drop 404×720.mp4 – 5.9 MB
19-08-09 6073093 bts with Owen Gray yesterday so excited for this scene !! 404×720.mp4 – 26.0 MB
19-08-09 6073127 I love making eye contact when I suck it more bts with Owen Gray 404×720.mp4 – 16.6 MB
19-08-13 6160439 Icing on the cake love getting my pussy covered with cum. 404×720.mp4 – 135.4 MB
19-08-15 6195158 Boats and hoes 624×1232.mp4 – 3.4 MB
19-08-22 6361718 Bubbly bath foot worship asmr 364×720.mp4 – 9.8 MB
19-08-24 6406749 Get busy 364×720.mp4 – 13.7 MB
19-08-25 6424037 I love spit play 364×720.mp4 – 17.1 MB
19-08-25 6424298 Im a good little cock sucker &_40;also onlyfans sucks and wont let me add mor&_40;..&_41; 364×720.mp4 – 13.1 MB
19-09-05 6685771 Double blowjob with Leda and Mr. Lucky~ open your dms to see the whole 24 m&_40;..&_41; 1280×720.mp4 – 79.8 MB
19-09-08 6776859 Cherry Bomb ~ solo coming soon~ 1280×720.mp4 – 32.8 MB
19-09-09 6787644 bts pt. 1 with Mr. Lucky 404×720.mp4 – 47.4 MB
19-09-09 6799671 Pt. 2 404×720.mp4 – 36.2 MB
19-09-10 6799986 Cherry Bombshell, my romantic solo fuck~ enjoy! 1280×720.mp4 – 208.7 MB
19-09-11 6840080 I always feel cuter when I have my kitty ears on 404×720.mp4 – 4.1 MB
19-09-12 6867300 Bath time 540×720.mp4 – 5.8 MB
19-09-14 6910307 DM me to get my premium Snapchat 25% off ! Only until the 17th! 364×720.mp4 – 2.9 MB
19-09-15 6947918 My favorite dick to suck I need to post another bg clip with this stud do&_40;..&_41; 364×720.mp4 – 14.5 MB
19-09-19 7031615 Cock for breakfast~ ENJOY~ 404×720.mp4 – 206.3 MB
19-09-19 7033923 My birthday is Saturday 404×720.mp4 – 2.9 MB
19-09-19 7034605 I got you under my spell 1280×720.mp4 – 37.9 MB
19-09-20 7078473 Morning sex with my favorite cock 404×720.mp4 – 66.1 MB
19-09-22 7117765 Im my own birthday cake 404×720.mp4 – 28.4 MB
19-09-24 7166794 I took Jay Smooths big load today on set for Bang.com 364×720.mp4 – 4.2 MB
19-09-27 7251590 Juicy peach 720×1280.mp4 – 190.8 MB
19-09-27 7254134 I love Leda comment below if you want to see us share a big cock together 360×640.mp4 – 1.3 GB
19-09-29 7296406 Thirsty 624×1232.mp4 – 62.8 MB
19-09-30 7325521 Wax play and chill 1080×1920.mp4 – 287.7 MB
19-10-02 7384321 Ass + Pussy Worship. I love playing with my tight wet holes as you watch~ 1920×1080.mp4 – 894.8 MB
19-10-04 7441739 If youre not crying while gagging on his dick…youre not doing it right 1080×1920.mp4 – 102.2 MB
19-10-05 7474276 624×1232.mp4 – 82.6 MB
19-10-05 7474372 Only one of me. 624×1232.mp4 – 69.6 MB
19-10-05 7484662 624×1232.mp4 – 99.3 MB
19-10-07 7523063 Roleplay I&_x27;m your horny gf waiting to get fucked. 1920×1080.mp4 – 954.7 MB
19-10-08 7553538 Typical Monday Night activities 1080×1920.mp4 – 254.1 MB
19-10-09 7580492 I blow and I fuck. A little teaser…. Open your DM&_x27;s to get the full 30mi&_40;..&_41; 1920×1080.mp4 – 555.1 MB
19-10-09 7583538 Felt cute today 624×1232.mp4 – 68.7 MB
19-10-10 7607757 Taste the rainbow ~ I plan on making a rainbow fuck video soon! Comment if&_40;..&_41; 624×1232.mp4 – 22.5 MB
19-10-10 7615920 I love fucking myself Like and comment if youd fuck me too. 1080×1920.mp4 – 663.8 MB
19-10-11 7646156 My cam show got me in the mood to do naughty even more naughty things. 1232×624.mp4 – 18.5 MB
19-10-12 7684828 I didnt get any good photos in my dress but my makeup slayed last night.&_40;..&_41; 750×1000.mp4 – 3.4 MB
19-10-12 7686394 up close and personal. Like and comment if you&_x27;d want to get all soapy and&_40;..&_41; 1920×1080.mp4 – 146.3 MB
19-10-14 7717876 I love rubbing lotion all over my silky smooth skin of course I had to give&_40;..&_41; 624×1232.mp4 – 82.2 MB
19-10-17 7811614 Look how happy I am when I get to play with a big cock 1080×1920.mp4 – 605.7 MB
19-10-18 7888349 Such yummy sex heres a little peak of my scene with Zac Wild, Aidra Fox,&_40;..&_41; 1920×1080.mp4 – 582.1 MB
19-10-21 7956851 Naked and beautiful enjoy this video of me playing with sans make up. 624×1232.mp4 – 28.1 MB
19-10-22 7995857 Some booty to curve the Monday Blues~ 720×1280.mp4 – 45.2 MB
19-10-24 8064967 I love making my pussy wet unlock your DMs to see me cum multiple times 1080×1920.mp4 – 131.6 MB
19-10-24 8079281 Like this if you love feet taking foot fetishized customs~ dm me! Also i&_40;..&_41; 750×1000.mp4 – 20.8 MB
19-10-24 8097394 Tight wet pussy 624×1232.mp4 – 62.7 MB
19-10-25 8099047 Spam my posts with likes! Itll help boost me on Onlyfans ~ I hope youre a&_40;..&_41; 750×1000.mp4 – 31.9 MB
19-10-26 8139019 Its Adventure Time!!! Im on my way to Escape Halloween but I will be post&_40;..&_41; 750×1000.mp4 – 21.6 MB
19-10-28 8206697 Foursome fun with Leda Bear, Mr. Lucky, and Spizoo~~ Five upload tries lat&_40;..&_41; 1920×1080.mp4 – 506.2 MB
19-10-28 8230314 Its officially sweater weather ~ hello from on set with Naughty America VR&_40;..&_41; 624×1232.mp4 – 2.7 MB
19-10-30 8282759 I look pretty good oiled up dont I I finally have the feature to go liv&_40;..&_41; 624×1232.mp4 – 46.5 MB
19-10-31 8309332 This fairy just sucked some dick~ video uploading soon lovers ~ 624×1232.mp4 – 83.5 MB
19-10-31 8312075 I welcome you to my rainbow dimension and suck you dry~~~ Full 12 minute v&_40;..&_41; 1920×1080.mp4 – 400.4 MB
19-11-03 8410612 Morning playtime 720×1280.mp4 – 169.2 MB
19-11-04 8455535 Dancing naked ~ enjoy this flow video I made! 720×1280.mp4 – 212.2 MB
19-11-04 8459753 I love when you watch me play with my tight pussy 720×1280.mp4 – 589.0 MB
19-11-04 8460161 The grand finale~ intense orgasms are the best 720×1280.mp4 – 429.7 MB
19-11-06 8527969 Body Worship 1920×1080.mp4 – 315.1 MB
19-11-07 8580654 Juicy working it for you. 624×1232.mp4 – 79.9 MB
19-11-09 8659206 Content coming soon with this babe, Paisley Bennet video will be ready tomo&_40;..&_41; 750×1000.mp4 – 2.7 MB
19-11-09 8675905 Eat your girl right Paisely is so tasty~ Open your DMs this evening for&_40;..&_41; 1920×1080.mp4 – 847.8 MB
19-11-10 8711936 Face fuck me and chill 720×1280.mp4 – 327.2 MB
19-11-12 8777596 Kitten play 624×1232.mp4 – 80.8 MB
19-11-13 8824813 Late night feels 720×1280.mp4 – 612.4 MB
19-11-15 8899850 Sometimes fingers are all you need 1920×1080.mp4 – 748.0 MB
19-11-17 8972956 Some dick sucking from the other night ps Ive been busy packing and cle&_40;..&_41; 720×1280.mp4 – 484.6 MB
19-11-18 9012471 Almost to my destination but heres me being cute with the rainbows the o&_40;..&_41; 624×1232.mp4 – 25.8 MB
19-11-19 9057771 Just landed in Thailand! My journey begins ~ 1232×624.mp4 – 29.0 MB
19-11-19 9057795 View from where I am staying in Chiang Mai 624×1232.mp4 – 22.6 MB
19-11-19 9057827 Booty jiggles~ 624×1232.mp4 – 29.0 MB
19-11-20 9101620 Salem and I smoke each other out while worshipping each others feet 1920×1080.mp4 – 524.5 MB
19-11-23 9242612 Magical rainbow nymphs ravishing each others pussy. 1920×1080.mp4 – 513.6 MB
19-11-24 9286738 A little twerk for you~~~ this was at the Bua Thong Waterfalls….tomorrow&_40;..&_41; 720×1280.mp4 – 119.3 MB
19-11-25 9320230 Hello from Pai 624×1232.mp4 – 56.1 MB
19-11-26 9350520 Just a quickie before I get fucked again 720×1280.mp4 – 274.7 MB
19-11-26 9367436 Just a little wet 1080×1920.mp4 – 44.4 MB
19-11-26 9367517 1080×1920.mp4 – 54.7 MB
19-11-27 9403332 Imagine waking up to me…. PT. 1 1080×1920.mp4 – 1009.9 MB
19-12-01 9569363 Imagine waking up to me PT 2 Lets just say…Im happiest when Im covered&_40;..&_41; 720×1280.mp4 – 1.2 GB
19-12-01 9584849 Morning things 624×1232.mp4 – 51.1 MB
19-12-02 9605951 Watch me drool 1080×1920.mp4 – 51.2 MB
19-12-03 9682475 Had a very sexy photo shoot Sunday and I have so much juicy goodness coming&_40;..&_41; 720×1280.mp4 – 2.8 MB
19-12-06 9801446 I love topping…especially when it involves double penetration with Salem&_40;..&_41; 1920×1080.mp4 – 796.8 MB
19-12-06 9828785 Like if youd want me to sit on your face 624×1232.mp4 – 72.2 MB
19-12-09 9933874 My face when I get while eating Leda&_x27;s pussy getting fucked~~~ ps I am al&_40;..&_41; 1920×1080.mp4 – 672.7 MB
19-12-11 10008241 Lets get clean so we can get dirty ~ 624×1232.mp4 – 102.0 MB
19-12-11 10020090 Worship my ass, show me you want it. 1920×1080.mp4 – 261.0 MB
19-12-11 10030507 Ill suck it really good for you. 624×1232.mp4 – 102.2 MB
19-12-13 10134407 My ass is so tight it took me ten minutes to get this plug in. 1232×624.mp4 – 104.7 MB
19-12-14 10167222 So wet so close 1920×1080.mp4 – 408.5 MB
19-12-15 10212439 Spit play like this if youd want me to get sloppy on your cock. &_40;The soun&_40;..&_41; 1080×1920.mp4 – 219.5 MB
19-12-15 10213099 Butt stuff 1080×1920.mp4 – 120.4 MB
19-12-16 10246947 Just did a holiday themed photoshoot ~~~ stay tuned ! 620×1232.mp4 – 3.5 MB
19-12-16 10248154 Some morning sex… 720×1280.mp4 – 682.7 MB
19-12-17 10303606 Winter Glow 1920×1080.mp4 – 419.2 MB
19-12-17 10306415 Let me fuck myself for you~ 1920×1080.mp4 – 1.0 GB
19-12-19 10394639 Me and Kenzie Taylor giving Ashley Lane a shower 1920×1080.mp4 – 105.2 MB
19-12-20 10438941 624×1232.mp4 – 64.2 MB
19-12-20 10438997 Baths are my favorite~ 624×1232.mp4 – 73.3 MB
19-12-20 10440097 Booty and bath time. I just love bending over for you all ~ 624×1232.mp4 – 63.0 MB
19-12-22 10524748 I love being a good little cock slut for my favorite cock pt. 1 Like thi&_40;..&_41; 720×1280.mp4 – 815.6 MB
19-12-23 10570713 Good kitties always swallow pt. 2 I think I give a very good blowjob don&_40;..&_41; 720×1280.mp4 – 855.0 MB
19-12-26 10693063 Turns out I was on the naughty list all along~ 1920×1080.mp4 – 749.4 MB
19-12-28 10758309 I love being teased 624×1232.mp4 – 71.7 MB
19-12-28 10758432 Spank me 624×1232.mp4 – 101.3 MB
19-12-28 10770020 My ass looks nice when it if full with a nice plug 1920×1080.mp4 – 319.0 MB
19-12-29 10816604 Let me dirty talk you until you cum all over me 720×1280.mp4 – 1.1 GB
19-12-31 10897845 I just got creampied for a bg custom but I wanted to get fucked a little m&_40;..&_41; 1080×1920.mp4 – 347.2 MB
19-12-31 10903392 Don&_x27;t you love it when I tease 1920×1080.mp4 – 376.1 MB
20-01-01 10942044 When you find a perfect cock at the end of the rainbow pt. 1 720×1280.mp4 – 726.3 MB
20-01-01 10947695 Covered in rainbows, then covered in cum. PT. 2 Hope everyone has a happ&_40;..&_41; 720×1280.mp4 – 753.1 MB
20-01-02 10975517 Another rainbow video because I cant get enough I hope you all had a grea&_40;..&_41; 624×1232.mp4 – 32.5 MB
20-01-02 10979625 So horny for this dick sadly my phone died while recording so I dont have&_40;..&_41; 1080×1920.mp4 – 420.0 MB
20-01-02 10979740 I want to take it to the next level this year! I want to create the most ep&_40;..&_41; 720×1280.mp4 – 2.8 MB
20-01-02 11017627 Let me shake it a little 624×1232.mp4 – 22.4 MB
20-01-04 11090050 I love dressing slutty and shakin my ass 624×1232.mp4 – 83.0 MB
20-01-05 11150779 Getting playtime started 624×1232.mp4 – 95.7 MB
20-01-05 11152181 Playing with my asshole. my goal this year is to be able to do anal and ma&_40;..&_41; 720×1280.mp4 – 219.1 MB
20-01-05 11152618 I love how my pussy tingles under the vibrations and I cant help but imag&_40;..&_41; 1080×1920.mp4 – 477.8 MB
20-01-07 11241499 Happy Monday Lovers 1920×1080.mp4 – 628.7 MB
20-01-08 11294212 Im a slutty college girl today for Brazzers 624×1232.mp4 – 31.1 MB
20-01-08 11340966 Morning Stretch Im behind on editing and sleep and on my way to set for a&_40;..&_41; 1232×624.mp4 – 73.3 MB
20-01-09 11375468 Stream started at 01092020 0445 am 736×1308.mp4 – 610.4 MB
20-01-10 11412937 Sometimes you just need a good hitachi orgasm, they really hit different. 1920×1080.mp4 – 384.4 MB
20-01-10 11427155 When Im blu, I think of you 624×1232.mp4 – 51.0 MB
20-01-10 11436772 Slutty Spit Hand Job PT.1 Spit bubbles are fun especially when Im jerking&_40;..&_41; 720×1280.mp4 – 858.4 MB
20-01-10 11436772 Slutty Spit Hand Job PT.1 Spit bubbles are fun especially when Im jerking&_40;..&_41; 720×1280.mp4 – 858.4 MB
20-01-10 11436772 Slutty Spit Hand Job PT.1 Spit bubbles are fun especially when Im jerking&_40;..&_41; 720×1280.mp4 – 858.4 MB
20-01-10 11436772 Slutty Spit Hand Job PT.1 Spit bubbles are fun especially when Im jerking&_40;..&_41; 720×1280.mp4 – 512 KB
20-01-10 11459044 Pt. 2 I love eating your cum after I jerk you off 720×1280.mp4 – 806.8 MB
20-01-12 11522092 _bts with Cherry Pimps today 624×1232.mp4 – 54.6 MB
20-01-12 11538036 Feeling spoiled today because I got to eat two delicious pussies ~~ Jenna F&_40;..&_41; 1080×1920.mp4 – 371.7 MB
20-01-14 11644792 Blu Like this is you wish you had my ass in your face 1920×1080.mp4 – 93.4 MB
20-01-14 11645433 Enjoy this clip of my soaping my tits while I figure out this video thing.&_40;..&_41; 1232×624.mp4 – 59.3 MB
20-01-14 11660913 Jenna is Delicious Open your DMs to see the full 19 minute video ~ 1920×1080.mp4 – 465.6 MB
20-01-17 11790739 Lotion up 624×1232.mp4 – 65.1 MB
20-01-19 11896385 Some quick sex I finally have a day off to film and catch up on things and&_40;..&_41; 720×1280.mp4 – 461.4 MB
20-01-22 12063626 Touch me in the morning I loved working with Eye_of_Eros so much ~ enjoy t&_40;..&_41; 1080×1350.mp4 – 96.9 MB
20-01-23 12142938 Pussy for breakfast 12 girl orgy of my dreams~ Excuse the out of frame bt&_40;..&_41; 1920×1080.mp4 – 199.0 MB
20-01-26 12297966 Reunited with my favorite slut full video coming soon~ we also did a doubl&_40;..&_41; 1920×1080.mp4 – 152.0 MB
20-01-27 12354743 Missing my high rise suite in Vegas already AVN was fun, exhausting, and&_40;..&_41; 624×1232.mp4 – 9.7 MB
20-01-29 12481199 Sluts Get Caught and Suck Cock~ Leda and I get caught at the end of our pla&_40;..&_41; 1920×1080.mp4 – 181.3 MB
20-01-31 12596012 Feelin pretty cute today and loving not wearing make up thinking Im going&_40;..&_41; 624×1232.mp4 – 3.4 MB
20-01-31 12615436 624×1232.mp4 – 5.8 MB
20-01-31 12615474 I have very tight holes 1232×624.mp4 – 10.1 MB
20-02-01 12679822 1080×1920.mp4 – 32.9 MB
20-02-01 12680764 Vibrator + butt plug = heavenly pleasure 1920×1080.mp4 – 70.1 MB
20-02-01 12705335 I love how wet my pussy gets after I cum 624×1232.mp4 – 8.0 MB
20-02-03 12820909 Neon Jungle Spent yesterday creating soemthing epic photographic art ~ I ca&_40;..&_41; 624×1232.mp4 – 2.8 MB
20-02-04 12851406 Some very needed Me time. I just got this rose quartz massage wand and I&_40;..&_41; 1920×1080.mp4 – 287.1 MB
20-02-06 12986497 Real amateur stuff havent taken this big dick in a minute~ excuse the clut&_40;..&_41; 720×1280.mp4 – 174.7 MB
20-02-11 13306141 The Daisy Chain Another precious orgy moment. Open your dm&_x27;s to view the&_40;..&_41; 1920×1080.mp4 – 189.4 MB
20-02-15 13552619 Happy Valentines Day I surprise Alix with a special toy so we can both fuc&_40;..&_41; 1920×1080.mp4 – 200.2 MB
20-02-18 13694703 Leda and I just have that special onlyfans.comledabearx 1920×1080.mp4 – 115.4 MB
20-02-18 13768274 I have a thing for blondes…. Full video for this will be released later t&_40;..&_41; 1920×1080.mp4 – 72.5 MB
20-02-19 13811613 I love playing with my spit 624×1232.mp4 – 1.5 MB
20-02-21 13953129 Playing dress up sexiness in this outfit coming soon~ 720×1280.mp4 – 2.9 MB
20-02-21 13965216 Just a lil horny Nymph Comment below if you want to see more content like&_40;..&_41; 1920×1080.mp4 – 424.7 MB
20-02-25 14196238 More _bts on set with Love Her Feet 720×1280.mp4 – 1.6 MB
20-02-25 14226617 Fairies love to suck full video available soon~ I am also filming some ho&_40;..&_41; 1920×1080.mp4 – 227.2 MB
20-02-28 14419248 _bts at my very slutty tea party This 20 minute solo will be available so&_40;..&_41; 1080×1920.mp4 – 286.2 MB
20-03-01 14553453 Sometimes I just need t put something in my pussy real quick 1232×624.mp4 – 6.0 MB
20-03-03 14691786 On set for VR CosplayX as officer Jenny 624×1232.mp4 – 1.5 MB
20-03-03 14694701 Seems like you have some contraband pok balls 624×1232.mp4 – 6.1 MB
20-03-05 14831156 Feeling cute today also heres a PSA this account is run by me and me only&_40;..&_41; 1232×624.mp4 – 4.8 MB
20-03-05 14884479 Anal training and rainbows go hand in hand I am hoping to get the third d&_40;..&_41; 1080×1920.mp4 – 83.8 MB
20-03-06 14941261 I plan on responding to messages later today after my dentist appointment~&_40;..&_41; 624×1232.mp4 – 7.3 MB
20-03-07 14961189 Secret &_40;wannabe&_41; anal slut Im going to post more training this weekend. 1080×1920.mp4 – 20.9 MB
20-03-07 14988253 Vibrator orgasms are my favorite especially sine the whyre so intense. Wat&_40;..&_41; 720×1280.mp4 – 88.2 MB
20-03-11 15250913 Fuck myself like no one else also I was trying to to see how quiet I could&_40;..&_41; 720×1280.mp4 – 85.5 MB
20-03-13 15405096 THIS TEASER IS GEARED TOWARDS SUBS I had so much filming this video~~~ im&_40;..&_41; 1920×1080.mp4 – 42.9 MB
20-03-13 15434218 Happy Friday 624×1232.mp4 – 4.2 MB
20-03-14 15455038 Im playing the rebellious step daughter today 624×1232.mp4 – 7.9 MB
20-03-15 15542420 Moisturizing before I get dicked down ~ 624×1232.mp4 – 6.6 MB
20-03-15 15546123 A much needed dick down 720×1280.mp4 – 184.0 MB
20-03-17 15668306 Feeling Blu So I decided to get all dolled up to make some sexy smut for y&_40;..&_41; 720×1280.mp4 – 7.0 MB
20-03-17 15684865 A gift for you I loved cumming gently fucking my ass 1920×1080.mp4 – 211.2 MB
20-03-17 15686989 I just want to thank everyone who has recently subscribed, tipped, and who&_40;..&_41; 624×1232.mp4 – 8.6 MB
20-03-18 15779671 I love wax play 1080×1920.mp4 – 68.5 MB
20-03-18 15779920 Wax on my titties makes me wet 624×1232.mp4 – 7.8 MB
20-03-19 15844114 Happy Humpday lovers come quarantine and chill with me this evening 8-9pm&_40;..&_41; 624×1232.mp4 – 11.8 MB
20-03-19 15858338 Treatment for Quarantine Masturbation. Masturbation helps strengthen the&_40;..&_41; 720×1280.mp4 – 75.5 MB
20-03-21 16041418 Lil dance before filming dick rating videos 624×1232.mp4 – 14.0 MB
20-03-21 16056931 Let my ass entrance you Open your dm&_x27;s for a 16 minute super hot and horny&_40;..&_41; 1920×1080.mp4 – 116.5 MB
20-03-22 16063782 Play time with Paisley~~ just found this in my archives onlyfans.compaisl&_40;..&_41; 1920×1080.mp4 – 218.5 MB
20-03-22 16143583 Moment of sunshine today to clean my mind hope everyone has able to get so&_40;..&_41; 624×1232.mp4 – 7.7 MB
20-03-24 16328457 Monday&_x27;s are becoming my weekly anal train day~ PT. 1 Comment below if yo&_40;..&_41; 1920×1080.mp4 – 127.5 MB
20-03-25 16422702 PT. 2 Baby gape~ comment below if you think my baby gape is cute 1920×1080.mp4 – 132.8 MB
20-03-26 16635474 Fuck Doll 720×1280.mp4 – 149.5 MB
20-03-27 16698338 Stream started at 03272020 0359 am 1280×720.mp4 – 1001.6 MB
20-03-28 16768127 A little peak of my fun yesterday~ 624×1232.mp4 – 15.7 MB
20-03-28 16777035 Craving for that juicy cock Full 20 minute video in dms~~ 1920×1080.mp4 – 177.4 MB
20-03-28 16795812 Just because Im obsessed with this outfit 624×1232.mp4 – 7.9 MB
20-03-28 16852589 Good morning 624×1232.mp4 – 7.1 MB
20-03-30 17036067 Quick Virtual Foot worship~ &_40;ya&_x27;ll have been asking foro foot content&_41; 1920×1080.mp4 – 81.3 MB
20-03-31 17126950 It&_x27;s tea time~ will you join me Full video available in dm&_x27;s tonight 1920×1080.mp4 – 117.2 MB
20-03-31 17155770 624×1232.mp4 – 6.7 MB
20-03-31 17159458 624×1232.mp4 – 5.4 MB
20-04-01 17160869 720×1280.mp4 – 132.8 MB
20-04-03 17505717 Hey lovers Ill be streaming tonight at 9pm PST and releasing a new video a&_40;..&_41; 624×1232.mp4 – 4.4 MB
20-04-03 17565884 I love imagining what you&_x27;d do to me 1920×1080.mp4 – 232.5 MB
20-04-04 17678474 First gape level 3 Sad onlyfans didnt save my stream. I tried archivin&_40;..&_41; 1080×1920.mp4 – 8.3 MB
20-04-04 17685083 Dicked Down with a big load 720×1280.mp4 – 241.0 MB
20-04-07 17993281 I am thinking bath time cam show later with more anal training ~ what do yo&_40;..&_41; 624×1232.mp4 – 3.4 MB
20-04-07 18026714 I luv spoiling you ~~ Enjoy this solo blu for you 1920×1080.mp4 – 395.8 MB
20-04-07 18051916 Stream started at 04072020 0233 am 1280×720.mp4 – 1.7 GB
20-04-07 18054174 Baby gape adventures 1080×1920.mp4 – 9.6 MB
20-04-08 18157884 I hope everyone is having a great Tuesday~~ and that you enjoyed my cam sho&_40;..&_41; 1080×1350.mp4 – 9.7 MB
20-04-08 18199417 Spreading and winking for you 1920×1080.mp4 – 59.9 MB
20-04-09 18280294 Happy hump day lovers I am going live today at 6pm PST dressed up in a co&_40;..&_41; 624×1232.mp4 – 18.7 MB
20-04-09 18314525 Stream started at 04092020 0118 am 1280×720.mp4 – 1.4 GB
20-04-09 18328571 PSA Officer Jenny wants you to stay inside and masturbate! 1920×1080.mp4 – 621.0 MB
20-04-10 18461392 Stream started at 04102020 0333 am 1280×720.mp4 – 1.5 GB
20-04-11 18543025 Pay your civil duty and give Officer Jenny all of your cum Full 18 minute&_40;..&_41; 1920×1080.mp4 – 238.4 MB
20-04-12 18671473 Some fun from my last stream~~ set your clocks because I am going live here&_40;..&_41; 720×1280.mp4 – 108.1 MB
20-04-12 18715830 Stream started at 04122020 0135 am 1280×720.mp4 – 1.9 GB
20-04-12 18728093 I hope everyone enjoyed the live stream I will be releasing a cute clip to&_40;..&_41; 720×1280.mp4 – 12.9 MB
20-04-13 18845094 Stream started at 04132020 0204 am 1280×720.mp4 – 1.1 GB
20-04-13 18865275 Thank you for everyone who tuned into my live show I had fun stuffing my&_40;..&_41; 624×1232.mp4 – 25.6 MB
20-04-13 18917392 Happy Monday I am starting the week off right by stuffing my cute little&_40;..&_41; 1920×1080.mp4 – 345.3 MB
20-04-15 19112685 I crave your cock I am thinking of putting up some bg content later this&_40;..&_41; 1080×1920.mp4 – 67.3 MB
20-04-15 19141466 Latex Worship~ I love the liquid like sounds it makes as I rub my handsu&_40;..&_41; 1920×1080.mp4 – 129.5 MB
20-04-16 19278663 They say April Showers bring May flowers comment below if you think we ne&_40;..&_41; 1920×1080.mp4 – 292.6 MB
20-04-16 19348550 Its thirsty Thursday~~ let me quench your thirst Edit I will be doing a&_40;..&_41; 624×1232.mp4 – 13.6 MB
20-04-18 19566721 Thank you so everyone who watched my livestream I am almost done editing a&_40;..&_41; 720×1280.mp4 – 9.5 MB
20-04-18 19573377 Cock Wrangler full 20 minute video available in DM&_x27;s in the morning ~~ 3840×2160.mp4 – 271.1 MB
20-04-19 19690396 Stream started at 04192020 0207 am Anal Training Show~ Tip Goal 150$ Ru&_40;..&_41; 1280×720.mp4 – 1.5 GB
20-04-20 19810234 Sometimes I&_x27;m such a naughty girl I have to spank myself and finger my ass&_40;..&_41; 1920×1080.mp4 – 429.7 MB
20-04-21 19958963 Stream started at 04212020 0103 am 420 Masturbation – tip goal 100$ Rul&_40;..&_41; 1280×720.mp4 – 506.6 MB
20-04-21 19961864 Stream started at 04212020 0136 am 1280×720.mp4 – 482.4 MB
20-04-21 19993336 Watch it jiggle Ill be responding to everyones messages ASAP in the mor&_40;..&_41; 1280×720.mp4 – 25.6 MB
20-04-22 20129078 Pussy at different angles 1920×1080.mp4 – 302.8 MB
20-04-23 20337568 Doing what I do best ~ 624×1232.mp4 – 44.5 MB
20-04-23 20338526 Cum extractor 624×1232.mp4 – 35.8 MB
20-04-24 20373704 Some _bts of the content creation process ~~ I will be responding to mess&_40;..&_41; 624×1232.mp4 – 10.3 MB
20-04-24 20436283 More _bts ~ Im really excited about what I accomplished today! I shot two&_40;..&_41; 624×1232.mp4 – 5.8 MB
20-04-25 20596657 Something quick before bed~ Ill be dropping a full video tomorrow before&_40;..&_41; 720×1280.mp4 – 154.2 MB
20-04-26 20689349 Pool day yesterday video and photos coming soon ~~~ I documented part of m&_40;..&_41; 1080×1920.mp4 – 9.0 MB
20-04-26 20695458 Afternoon delightenjoy me enjoying myself teasing my ass and pussy ~ Comme&_40;..&_41; 1920×1080.mp4 – 396.2 MB
20-04-26 20710183 Stream started at 04262020 0245 am Goal 100$~ chill saturdday night han&_40;..&_41; 1280×720.mp4 – 1.0 GB
20-04-27 20851215 Stream started at 04272020 0251 am 1280×720.mp4 – 175.8 MB
20-04-27 20855312 Stream started at 04272020 0312 am 1280×720.mp4 – 699.5 MB
20-04-27 20859739 And for my next trick 1080×1920.mp4 – 84.9 MB
20-04-27 20868603 I look pretty cute stuffing my throat and pussy 1080×1920.mp4 – 37.5 MB
20-04-28 20969802 Watch me throw it back ~~ a little slow motion snippet from a custom I rec&_40;..&_41; 1920×1080.mp4 – 65.5 MB
20-04-28 21028723 Just a horny slut who needs to cum…..again….and again 1920×1080.mp4 – 451.4 MB
20-04-29 21181449 It&_x27;s better where it&_x27;s wetter ~~ 1920×1080.mp4 – 242.9 MB
20-04-30 21291485 Your cum + my pussy = match made in heaven Open your DMs for full 20 min&_40;..&_41; 1920×1080.mp4 – 258.5 MB
20-04-30 21326580 Stream started at 04302020 0241 am 1280×720.mp4 – 1.2 GB
20-05-02 21578676 It&_x27;s May and spring is in bloom Here is a little sneak at what is coming&_40;..&_41; 1920×1080.mp4 – 139.1 MB
20-05-02 21667449 I love when we cum together 1920×1080.mp4 – 437.1 MB
20-05-03 21772506 Hey there friends ~ be sure to check out my story posts for updates about s&_40;..&_41; 720×1280.mp4 – 8.4 MB
20-05-03 21798349 Getting trippy tonight uploading a fun clip in this outfit soon 624×1232.mp4 – 25.6 MB
20-05-03 21803111 Black light wax is something else isnt it 1080×1920.mp4 – 37.0 MB
20-05-03 21806747 Some late night throat training Comment below if you like watching me pl&_40;..&_41; 1920×1080.mp4 – 313.4 MB
20-05-04 21929061 Stream started at 05042020 0207 am Sunday Funday Cum Show Tip Goal 100&_40;..&_41; 1280×720.mp4 – 1.1 GB
20-05-04 21951394 Glow with me~ Flow with me Here is the hoop content you&_x27;ve been waiting f&_40;..&_41; 1920×1080.mp4 – 264.8 MB
20-05-05 22061712 Some anal stretching fun~ Comment below if you like my gape 1080×1920.mp4 – 48.9 MB
20-05-06 22240957 Spreading it open for you dreaming of a cock in here one day…. 1920×1080.mp4 – 251.3 MB
20-05-07 22363975 Love you all 624×1232.mp4 – 16.1 MB
20-05-07 22392676 I just really needed to cum comment below if you like how things got real&_40;..&_41; 1920×1080.mp4 – 200.0 MB
20-05-08 22569149 Would you get my back 720×1280.mp4 – 89.6 MB
20-05-09 22668453 New ways to fuck myself 1920×1080.mp4 – 471.9 MB
20-05-10 22797927 Cum is the most important meal of the day ~ Do you like how I play with t&_40;..&_41; 720×1280.mp4 – 475.4 MB
20-05-10 22850431 Spit play with myself is my fave ~ cant wait to slobber all over a dick so&_40;..&_41; 624×1232.mp4 – 23.6 MB
20-05-11 22985275 Stream started at 05112020 0317 am Tip Goal 100 $ Sunday Funday Cum sh&_40;..&_41; 1280×720.mp4 – 943.9 MB
20-05-12 23095933 Sunshine I will be releasing a fun video later tonight 1080×1920.mp4 – 8.6 MB
20-05-12 23147833 I like to take things slow open your dm&_x27;s for the full 15 minute solo~~~&_40;..&_41; 1920×1080.mp4 – 255.7 MB
20-05-12 23214222 I jerk that cock so good you explode Also~~~~ I love playing with cum 720×1280.mp4 – 355.1 MB
20-05-13 23377613 I hope everyone is having g a great Wednesday ! Im going somewhere fun for&_40;..&_41; 720×1280.mp4 – 27.8 MB
20-05-14 22820633 I&_x27;m your lonely horny girlfriend, and you&_x27;ve been busy working…So I decid&_40;..&_41; 1920×1080.mp4 – 427.1 MB
20-05-16 22815005 Worship my ass~ so juicy and plump… 1920×1080.mp4 – 158.0 MB
20-05-16 23264994 Dirty Talk I turned myself on so good just telling you how I&_x27;d want you t&_40;..&_41; 1920×1080.mp4 – 483.5 MB
20-05-18 24009393 Naughtiest forest nymph There was something quite magical about masturbati&_40;..&_41; 1080×1920.mp4 – 444.2 MB
20-05-18 24051832 Space elf vibes for the EDC livestream 720×1280.mp4 – 11.4 MB
20-05-20 24318184 I want to just say Im full of infinite gratitude for all of you!!!! My hea&_40;..&_41; 720×900.mp4 – 12.3 MB
20-05-20 24344177 Frisky in nature Comment below if you like when things get wet hehe ~ 1080×1920.mp4 – 22.0 MB
20-05-20 24370429 Hot spring magic refreshed + recharged What would you do if you happened&_40;..&_41; 1080×1920.mp4 – 36.7 MB
20-05-21 24539483 I got this new plug set and I think its going to help me stretch~~~ maybe&_40;..&_41; 1920×1080.mp4 – 390.5 MB
20-05-22 24685308 Stream started at 05222020 0232 am Tip Goal 150 $ Cum show 1280×720.mp4 – 882.0 MB
20-05-23 24795185 @xofreja and I had a little facetime date a few weeks ago and heres a littl&_40;..&_41; 1920×1080.mp4 – 224.4 MB
20-05-23 24841416 Youll find something Blu at the end of the rainbow 1080×1920.mp4 – 14.8 MB
20-05-23 24858301 1080×1920.mp4 – 140.2 MB
20-05-24 24945073 Rinsing off the cum ~~ I just filmed a super hot at home scene for a compan&_40;..&_41; 1920×1080.mp4 – 22.9 MB
20-05-24 24945073-02 Rinsing off the cum ~~ I just filmed a super hot at home scene for a compan&_40;..&_41; 1920×1080.mp4 – 39.7 MB
20-05-25 24824840 Naughty elven nympho~ enjoy this up close pussy fucking 1920×1080.mp4 – 420.9 MB
20-05-25 25082679 Stream started at 05242020 0758 pm Tip Goal 150 $ Sunday Funday show 1280×720.mp4 – 1.6 GB
20-05-26 25289024 A collection of Blu~ Also keep your eyes peeled for a new video tomorrow&_40;..&_41; 720×1280.mp4 – 10.0 MB
20-05-27 25448342 This devious little elf wants to suck you dry ~ Open your DM&_x27;s for the fu&_40;..&_41; 1920×1080.mp4 – 195.9 MB
20-05-28 25579441 Fun GIF from the blowjob I just posted ~~~ Have you seen the whole video&_40;..&_41; 720×404.mp4 – 908 KB
20-05-29 25753167 Stream started at 05292020 0210 am Throat Training cum show Tip goal 1&_40;..&_41; 1280×720.mp4 – 1.1 GB
20-05-29 25775160 Afternoon delight in the sunlight 1080×1920.mp4 – 266.3 MB
20-05-30 25851644 Sometimes you just need to spank yourself Also I want to say thank you to&_40;..&_41; 624×1232.mp4 – 14.0 MB
20-05-31 25990494 Throat session from my Snapchat ~ I love dirty talking and stuffing my mo&_40;..&_41; 1080×1920.mp4 – 338.6 MB
20-06-01 25740910 Imagine me squatting on your face 1920×1080.mp4 – 125.1 MB
20-06-01 26174118 Stream started at 06012020 0235 am Sunday Funday Cum Show RULES BE NIC&_40;..&_41; 1280×720.mp4 – 958.8 MB
20-06-02 25732309 Drools Blu 1080×1920.mp4 – 227.8 MB
20-06-02 26313450 I want to thank all of you for your continued support I have a lot of fun&_40;..&_41; 1080×1920.mp4 – 19.1 MB
20-06-04 25707375 Sweet kiss upon her lips~ playing in the ivy and roses Enjoy these outtak&_40;..&_41; 1920×1080.mp4 – 359.7 MB
20-06-04 26607461 AMA Part 1 I enjoyed answering all of your questions I hope you enjoy ~ 1920×1080.mp4 – 685.1 MB
20-06-05 26737223 AMA PT 2 Enjoy~~ 1920×1080.mp4 – 767.9 MB
20-06-06 26872028 Something about a nice big dick that just puts me in a good mood oh and g&_40;..&_41; 1920×1080.mp4 – 264.3 MB
20-06-07 27031005 Some late night flow ~ havent picked my hoop up in a week or so 1080×1920.mp4 – 48.4 MB
20-06-08 27162787 Henlo 720×1280.mp4 – 7.8 MB
20-06-08 27162787-02 Henlo 720×1280.mp4 – 9.2 MB
20-06-08 27171526 Slobbering slut but whats new ~ 1080×1920.mp4 – 195.9 MB
20-06-08 27178608 Casual and cute &_40;NOTE I am not sure what happened to the rest of this v&_40;..&_41; 1920×1080.mp4 – 196.1 MB
20-06-10 27439478 Feeling myself I hope everyone is having a great Tuesday ~ Ill be uploa&_40;..&_41; 624×1232.mp4 – 28.5 MB
20-06-10 27474890 Sensual and intenseI love making myself cum so much! 1920×1080.mp4 – 371.6 MB
20-06-12 27796576 Don&_x27;t @onlyjennafoxx and I look so good sharing a big juicy cock Check yo&_40;..&_41; 1920×1080.mp4 – 220.8 MB
20-06-13 27931240 Twitter and Insta saw these first but wow Im feeling great today ! About&_40;..&_41; 720×1280.mp4 – 4.4 MB
20-06-13 27955249 Spoil me and I&_x27;ll spoil you sweet dreams lovers~~~ 1080×1920.mp4 – 12.8 MB
20-06-15 28205175 Something sexy for your Sunday dreaming of having someones face to smothe&_40;..&_41; 1080×1920.mp4 – 31.0 MB
20-06-15 28237693 My favorite way to cum lately is gagged something about it just makes me s&_40;..&_41; 1920×1080.mp4 – 350.1 MB
20-06-15 28237693 My favorite way to cum lately is gagged something about it just makes me s&_40;..&_41; 1920×1080.mp4 – 350.1 MB
20-06-17 28500093 SLOPPY. DIRTY. WET Full video dropping tomorrow in your DM&_x27;s Comment belo&_40;..&_41; 1920×1080.mp4 – 78.4 MB
20-06-17 28509895 Fairy Playtime I haven&_x27;t been doing as much anal training but I am tryi&_40;..&_41; 1920×1080.mp4 – 424.0 MB
20-06-18 28089988 Romantic Candle Lit Bath~ messy, sloppy, and WET! I must say I do like le&_40;..&_41; 1920×1080.mp4 – 183.7 MB
20-06-18 28727121 THROAT SLUT Open your DMs meow to watch the full 22 minute video~ as al&_40;..&_41; 1280×720.mp4 – 6.6 MB
20-06-20 28095100 Romantic Bath Outtakes~ This video has to be one of my favorites I&_x27;ve made&_40;..&_41; 1920×1080.mp4 – 747.8 MB
20-06-20 28531159 Worship me like the Goddess I am 1920×1080.mp4 – 131.8 MB
20-06-20 29051765 Cutie with a bootie loving all the support and love you all shower me with&_40;..&_41; 400×712.mp4 – 1.0 MB
20-06-22 29295258 Happy Sunday I want to send a welcome to all the new Blu Team Players I&_40;..&_41; 720×1280.mp4 – 11.2 MB
20-06-22 29295258-02 Happy Sunday I want to send a welcome to all the new Blu Team Players I&_40;..&_41; 720×1280.mp4 – 8.4 MB
20-06-23 29518190 I love telling you how to jerk your cock off to me, and you love following&_40;..&_41; 1920×1080.mp4 – 397.2 MB
20-06-24 29683628 I love @thejennafoxx Here s tiny peak at a video I did with her! coming so&_40;..&_41; 1920×1080.mp4 – 102.3 MB
20-06-25 29853739 I got a cute little tail and I had to demo it~~~ Expect to see a real kawai&_40;..&_41; 1080×1920.mp4 – 383.2 MB
20-06-27 30125996 Worship my feet Foot Friday is back and I am plan to do more foot conten&_40;..&_41; 1920×1080.mp4 – 212.0 MB
20-06-27 30154340 Happy Friday lovers~ I will be releasing the video with Jenna in my DMs to&_40;..&_41; 1080×1920.mp4 – 22.1 MB
20-06-27 30188166 I love kissing girls 1280×720.mp4 – 2.9 MB
20-06-27 30197763 @thejennafoxx and I magical lady loving~ Full 22 minute video in your DM&_x27;&_40;..&_41; 1920×1080.mp4 – 45.8 MB
20-06-28 30269853 Wouldnt you love to soap me up 1920×1080.mp4 – 42.4 MB
20-06-29 30472433 Sunday funday 1080×1080.mp4 – 2.3 MB
20-06-29 30475184 I like to dance and I like to cum and have FUN ~ 1920×1080.mp4 – 364.4 MB
20-06-29 30523883 This kitty is ready to play redid my neko girl look ~~ videos coming soon 720×1280.mp4 – 15.3 MB
20-06-30 30688931 Magical mysticism playing in the sunset rainbows I did three photosets to&_40;..&_41; 1080×1920.mp4 – 43.9 MB
20-07-01 30819813 Naughty little kitty playtime I show you what makes me meow and purrrrr~&_40;..&_41; 1920×1080.mp4 – 420.9 MB
20-07-02 31057861 some booty spanks and jiggles for this fine Humpday 1920×1080.mp4 – 146.4 MB
20-07-03 31249370 Kitty wants milk open your DM&_x27;s for the full 25 minute video ~ 1920×1080.mp4 – 234.2 MB
20-07-06 31709865 I need that report turned in at 5pm but first we need to play a little game&_40;..&_41; 1920×1080.mp4 – 569.9 MB
20-07-07 31809548 If you haven&_x27;t opened your dm&_x27;s yet you are missing out on this video Sta&_40;..&_41; 1920×1080.mp4 – 82.5 MB
20-07-07 31811315 Come play with me in my fairy den I really love this collaboration with my&_40;..&_41; 1920×1080.mp4 – 195.3 MB
20-07-09 32245837 I like it when things get wet~ don&_x27;t you 1920×1080.mp4 – 307.5 MB
20-07-10 32252852 Magic dancer 1080×1920.mp4 – 187.4 MB
20-07-11 32631175 Something cute in my butt~~ also shout out to everyone who came to my lives&_40;..&_41; 720×1280.mp4 – 8.7 MB
20-07-12 32812710 Pure orgasm 1920×1080.mp4 – 384.6 MB
20-07-13 32947287 Ive been bad, but we all know Im good at that ~ Hint at the bg video d&_40;..&_41; 1080×1920.mp4 – 18.9 MB
20-07-13 32971693 Just want your cock 1080×1920.mp4 – 21.5 MB
20-07-13 32988707 I know we should study ~ but I need your cock first Open your dm&_x27;s for th&_40;..&_41; 1920×1080.mp4 – 184.9 MB
20-07-15 33289711 Happy Tuesday I am spending today working on custom videos and filming so&_40;..&_41; 1080×1920.mp4 – 66.3 MB
20-07-15 33375206 Just a horny slut showing you how I would service your cock Enjoy this gif&_40;..&_41; 1920×1080.mp4 – 483.9 MB
20-07-16 33489608 Some more juicy booty goodness for your Waifu Wednesday Starting next wee&_40;..&_41; 1080×1920.mp4 – 11.7 MB
20-07-16 33497445 That spit bubble though Edit if you havent opened this video in your DM&_40;..&_41; 720×404.mp4 – 1.3 MB
20-07-16 33655292 Quenching your thirst for the booty 1920×1080.mp4 – 275.0 MB
20-07-18 33937741 Am I cute 720×1280.mp4 – 11.4 MB
20-07-18 33951097 Rainbow quickie! I&_x27;ve been very horny all day and I just needed an instant&_40;..&_41; 1920×1080.mp4 – 210.1 MB
20-07-19 34098055 Feeling myself ~~ hope everyone is having a great Saturday ! I decided I a&_40;..&_41; 1080×1920.mp4 – 18.9 MB
20-07-20 34289955 I hope everyone is having a wonderful Sunday funday I will be releasing a&_40;..&_41; 1080×1920.mp4 – 39.1 MB
20-07-22 34734704 Horny thoughts while I fuck myself 1080×1920.mp4 – 393.2 MB
20-07-22 34734704 Horny thoughts while I fuck myself 1080×1920.mp4 – 393.2 MB
20-07-22 34734704 Horny thoughts while I fuck myself 1080×1920.mp4 – 393.2 MB
20-07-22 34751556 Fire dancing at dusk I love the desert and the dust ~ it fuels my soul. 1920×1080.mp4 – 212.5 MB
20-07-24 35122253 My birthday is September 21st and all I want is to reach my OF goal here !!&_40;..&_41; 590×1280.mp4 – 6.4 MB
20-07-24 35198621 Always satisfied with your cock stuffed down my throat FUll 22 minute bj&_40;..&_41; 1920×1080.mp4 – 185.0 MB
20-07-24 35263590 Another little teaser~ open your dm&_x27;s for the full 22 minute bj video! PS&_40;..&_41; 1920×1080.mp4 – 37.0 MB
20-07-24 35263590 Another little teaser~ open your dm&_x27;s for the full 22 minute bj video! PS&_40;..&_41; 1920×1080.mp4 – 37.0 MB
20-07-24 35263590 Another little teaser~ open your dm&_x27;s for the full 22 minute bj video! PS&_40;..&_41; 1920×1080.mp4 – 512 KB
20-07-26 35580159 I hope you are having a sexy Saturday I will be posting a hot video later&_40;..&_41; 1080×1920.mp4 – 18.2 MB
20-07-26 35623245 Pull my panties to the side and…. 1080×1920.mp4 – 538.5 MB
20-07-26 35626903 Blue for You Full 12 minute solo dropping next week~ be on the look out&_40;..&_41; 1920×1080.mp4 – 89.4 MB
20-07-27 35822766 I love playing in the rainbows, dancing and moving, teasing you while ignit&_40;..&_41; 1080×1920.mp4 – 276.9 MB
20-07-28 36040654 A pure vision So in love with this outfit from yesterday I will be releas&_40;..&_41; 1080×1920.mp4 – 6.3 MB
20-07-29 36404696 You go into the room, and find me there….your personal sex doll. Please r&_40;..&_41; 1920×1080.mp4 – 234.9 MB
20-07-31 36704525 Drooly bb hope you are all having an amazing Thursday !&_40;..&_41; 400×712.mp4 – 230 KB
20-07-31 36737870 Blue for You Enjoy this 12 minute solo….I like to start slow with a nice&_40;..&_41; 1920×1080.mp4 – 399.6 MB
20-07-31 36739189 Pleasure is my language 1280×720.mp4 – 9.2 MB
20-07-31 36872180 It FriYAY I hope everyone is having a wonderful day and I am so excited to&_40;..&_41; 1080×1920.mp4 – 42.5 MB
20-08-01 36984118 Stream started at 08012020 0205 am It&_x27;s FRIYAY ~~~ Let&_x27;s end the month&_40;..&_41; 1280×720.mp4 – 1.2 GB
20-08-02 37190872 I love dirty taking to you while I fuck myself, fantasizing about your cock&_40;..&_41; 1920×1080.mp4 – 368.1 MB
20-08-03 37346802 Can you complete this Fairys task to finish your quest First she is going&_40;..&_41; 1920×1080.mp4 – 58.0 MB
20-08-03 37387489 WET 1080×1920.mp4 – 12.6 MB
20-08-04 37635613 Feelin groovy 1080×1920.mp4 – 6.6 MB
20-08-05 37924439 I felt pretty cute this weekend and made a lot of art !! Im super excited&_40;..&_41; 1080×1920.mp4 – 13.0 MB
20-08-05 37924439-02 I felt pretty cute this weekend and made a lot of art !! Im super excited&_40;..&_41; 1080×1920.mp4 – 16.2 MB
20-08-06 38165685 My pussy glistening after I cum 1920×1080.mp4 – 18.5 MB
20-08-06 38176131 It&_x27;s been a few days since I had a decent orgasm~~ultra horny vibes 1920×1080.mp4 – 443.7 MB
20-08-07 38399612 A little fun in between filming customs 1080×1920.mp4 – 63.8 MB
20-08-07 38405894 Ive been working like a mad woman the past few days catching up on request&_40;..&_41; 1080×1920.mp4 – 28.0 MB
20-08-08 38670931 Wish I was doing this on your face 1080×1920.mp4 – 20.5 MB
20-08-09 38877969 POV Im ur hot gamer girlfriend and you want me to suck your dick before l&_40;..&_41; 1920×1080.mp4 – 49.4 MB
20-08-09 38900954 Glow with me So this is part of the black light exploration I did last nig&_40;..&_41; 1920×1080.mp4 – 177.7 MB
20-08-10 39008609 POV I am your gamer girlfriend and you keep distracting me while I play ga&_40;..&_41; 1920×1080.mp4 – 257.3 MB
20-08-11 39368124 Sex Doll Activated Ready to cum, and ready to feel pleasure~ Sex Dolls func&_40;..&_41; 1920×1080.mp4 – 312.3 MB
20-08-12 39730904 A little spread thinking about your face in between my legs 720×1280.mp4 – 15.9 MB
20-08-13 39887684 Welcome to my dimension 720×1280.mp4 – 22.5 MB
20-08-13 39899689 Cumming soon to a small screen near you this video is going to be EPIC !!!&_40;..&_41; 1080×1920.mp4 – 21.6 MB
20-08-14 40163112 More than a good handful a little GIF of a anal play blacklight glow I just&_40;..&_41; 1920×1080.mp4 – 3.3 MB
20-08-14 40167961 Anal Glow Okay so I have been a little obsessed with blacklight and glowy&_40;..&_41; 1920×1080.mp4 – 408.5 MB
20-08-16 40643460 Casual Saturday nights~I&_x27;ve been in the mood for all the anal play fun late&_40;..&_41; 1920×1080.mp4 – 329.1 MB
20-08-17 40888761 Give me everything you GOT for this wet ass pussy A little GIF from my&_40;..&_41; 1280×720.mp4 – 9.2 MB
20-08-18 41150754 Sometime you just need some good raw sex always horny the dick~&_40;..&_41; 1920×1080.mp4 – 178.4 MB
20-08-20 41641058 In need a good face to sit on any takers 1920×1080.mp4 – 39.0 MB
20-08-21 41375172 A little pussy tease to get me in the mood~ it&_x27;s always the softest, most g&_40;..&_41; 1920×1080.mp4 – 268.8 MB
20-08-21 41993578 My birthday is about a month away and we are getting closer to my goal !!!&_40;..&_41; 720×1280.mp4 – 9.3 MB
20-08-22 42261086 Front facing camera and sucking dick cant help but to check myself out St&_40;..&_41; 1080×1920.mp4 – 40.9 MB
20-08-23 42472976 I wanna get nasty with you 1080×1920.mp4 – 22.4 MB
20-08-24 42780980 Sloppy. Messy. Nasty. I crave your cock and I want to drain your balls ~ op&_40;..&_41; 1920×1080.mp4 – 169.0 MB
20-08-26 43370511 I came so hard just fantasizing and thinking about your cock sliding inside&_40;..&_41; 1920×1080.mp4 – 263.7 MB
20-08-27 43576992 Happy Wednesday lovers enjoy these juicy bits while I film more goodness f&_40;..&_41; 1080×1920.mp4 – 17.1 MB
20-08-27 43724061 a little snippet of what&_x27;s cumming to your dm&_x27;s tomorrow the creampie I go&_40;..&_41; 1920×1080.mp4 – 43.5 MB
20-08-27 43784309 Sometimes you just need a professional~ this 25 minute video includes footj&_40;..&_41; 1920×1080.mp4 – 228.8 MB
2019-01-22_1czAYHzzZUnAgA7FSoRIhzujNU2ZBCOh.mp4 – 63.0 MB
2019-01-26_WrMDj7KrbxZX8kCVJ8qph61Nlhr1cyrL.mp4 – 49.5 MB
2019-02-18_PL2ry4cpaYFCjjHK1kng8MKEWLIbD9cQ.mp4 – 51.4 MB
2019-03-05_dXO1UXrmNKa1trKBcrPQk8UmFONHysiR.mp4 – 84.1 MB
2019-03-12_FOzoC4Z64ko1yG9c2juJpxeeSlWtZ4Wd.mp4 – 10.9 MB
2019-03-13_WzO2Db5etgb9M8udrzfoZfVp0hse763c.mp4 – 3.1 MB
2019-03-14_ZYhqdUdfwYiqW04x3c46rarFgC7RB3o2.mp4 – 19.0 MB
2019-03-26_3IcnWEclZagsyjTuSqXIfcs9ptW3kK3Q.mp4 – 38.2 MB
2019-03-26_ihnV51lXwEusw5c4FAFnnd251zPZIdq5.mp4 – 32.0 MB
2019-03-26_MCzVyPMtV0uSdrafRT95rTxMNfJami1i.mp4 – 30.9 MB
2019-03-26_P3JqBLMn33gQfwSgmdC7UjS3YFuYAG9E.mp4 – 36.2 MB
2019-03-30_R2O9LGeB3EQmoMVIReUgKV41DsiXvsBR.mp4 – 167.6 MB
2019-04-02_xzDyPToqKj9dOuskjltDVeXMNgmNadBS.mp4 – 10.0 MB
2019-04-06_5pH8AoKUDoT9Aqw3Jq4jsMshO8gRuFjq.mp4 – 107.2 MB
2019-04-18_l6gxgaxyPtddvpfGhuJPMIU75jaDY9Zs.mp4 – 117.9 MB
2019-04-28_nng2CFG8gtL05qYhomrg2YxFP6HMylDd.mp4 – 5.2 MB
2019-05-02_KnWqR1XECoZX1OiVCmoH83O7UtnffOBL.mp4 – 47.2 MB
2019-05-15_gnYwz5dfW1raqDrlL0zrgmmgXDfgBBjV.mp4 – 85.8 MB
2019-05-17_FalIi9PHzl97jgT49rSghgWWi7FehYVw.mp4 – 10.1 MB
2019-05-19_DhYsgqSznL2uyBqQEhkq3dAP9ev7Kv6H.mp4 – 12.0 MB
2019-05-28_HZKk3Trd0xN1LHXN5tq0czf9Id7RMm81.mp4 – 43.9 MB
2019-05-31_z8oZKZZG6SRvo6yUkFZZFQAb7eQtw1VH.mp4 – 34.0 MB
2019-06-01_42HXawBrAuLronBJFRm67EKNT2GGmN7N.mp4 – 90.8 MB
2019-06-11_Kc4WQjgeAKUwGd9mpTRKUxmSDc9dLQvI.mp4 – 1.3 MB
2019-06-21_82PX3oq9GkhYWwURAn55wjCMqdh9qv59.mp4 – 15.2 MB
2019-06-21_LAc7kpZMVoYiNbVKkQHWXacwhQTVXoDC.mp4 – 21.7 MB
2019-06-21_M0M1vFEKVFEe4HYKEzKFOmu6kIO8zZO1.mp4 – 17.3 MB
2019-06-27_rVicZQVt5Gv7wmsptNL5xEOrl9zi5WCV.mp4 – 100.0 MB
2019-06-29_5d17840b25b254ae26ea9.mp4 – 249.6 MB
2019-07-04_5d1e5e5c265e91e466bf8.mp4 – 77.9 MB
2019-07-14_5d2ac50ce0bfc67c65108.mp4 – 17.5 MB
2019-07-21_5d34212ee4335fdd40023.mp4 – 276.8 MB
2019-08-05_5d489cdcb46e81f9b0d54.mp4 – 17.0 MB
2019-08-05_5d489f9bc238f02e4d0e6.mp4 – 5.9 MB
2019-08-09_5d4db49ac2717eda381f9.mp4 – 26.0 MB
2019-08-09_5d4db51159c1c2eeba80c.mp4 – 16.6 MB
2019-08-13_5d5307b60967a82097710.mp4 – 135.4 MB
2019-08-15_01ffc0633bf20a190d79a8122975e079.mp4 – 3.4 MB
2019-08-22_5d5e325e39dd181dfdc16.mp4 – 9.8 MB
2019-08-24_5d609fd64332d8237f598.mp4 – 13.7 MB
2019-08-24_5d61b641a15c5f43904f0.mp4 – 17.1 MB
2019-08-24_5d61b99cd095ac3f47e4d.mp4 – 13.1 MB
2019-09-04_5d703c6b3b09710d3dfde.mp4 – 79.8 MB
2019-09-08_5d753f9466c2ca32a813e.mp4 – 32.8 MB
2019-09-09_5d75d337462252f8f249a.mp4 – 47.4 MB
2019-09-09_5d768d37aef9080efc2bf.mp4 – 36.2 MB
2019-09-09_5d7690131c2eb85459b42.mp4 – 208.7 MB
2019-09-11_5d787f9aca4b18be7aa56.mp4 – 4.1 MB
2019-09-12_5d79e79787c4e3a43c6f2.mp4 – 5.8 MB
2019-09-13_5d7c09e90e61a11e32421.mp4 – 2.9 MB
2019-09-15_5d7e64087b4a089aa34ac.mp4 – 14.5 MB
2019-09-18_5d828ff9bcd6ea38c6d68.mp4 – 206.2 MB
2019-09-18_5d82a40c1a6c2ccd376e2.mp4 – 2.9 MB
2019-09-18_5d82aad6c1e550857ac66.mp4 – 37.9 MB
2019-09-20_5d84f9ec7b594f295be5a.mp4 – 66.1 MB
2019-09-22_5d87381d07d0f47c1c5d8.mp4 – 28.4 MB
2019-09-24_5d89a410cf2ce920b463a.mp4 – 4.2 MB
2019-09-27_5d8d9a0886ffbf49bac0e.mp4 – 190.8 MB
2019-09-27_5d8dc74b85a8aeb67e63f.mp4 – 1.3 GB
2019-09-28_5d8fe532b2761c8745c3b.mp4 – 62.8 MB
2019-09-28_5d8fe532b2761c8745c3b.mp4 – 62.8 MB
2019-09-30_5d9173562de37fc282b1b.mp4 – 287.7 MB
2019-10-02_5d940ef92ebc55b9e9891.mp4 – 894.8 MB
2019-10-04_5d96a4c1678de5b02e036.mp4 – 102.2 MB
2019-10-05_5d9851bbe13b505981d0c.mp4 – 82.6 MB
2019-10-05_5d9854258d19f247bd546.mp4 – 69.6 MB
2019-10-05_5d98de8ba1207ff1c5cf5.mp4 – 99.3 MB
2019-10-07_5d9ad24ae99d9312e20ba.mp4 – 954.7 MB
2019-10-08_5d9c376b9431174dcdffd.mp4 – 254.1 MB
2019-10-09_5d9d4e404714eb94f81dc.mp4 – 555.1 MB
2019-10-09_5d9d7b1ecc6362095285c.mp4 – 68.7 MB
2019-10-10_5d9e7a054d88f6952438e.mp4 – 22.5 MB
2019-10-10_5d9ee18b3a10bfb018722.mp4 – 663.8 MB
2019-10-11_5da02b8c2636fe98ea660.mp4 – 18.5 MB
2019-10-12_2e9a04589ae0d1f1d73a90c2f58a419b.mp4 – 3.4 MB
2019-10-12_5da221c39bce3aefbb586.mp4 – 146.3 MB
2019-10-13_5da3b638c56a6187fc737.mp4 – 82.2 MB
2019-10-16_5da76a747d9ca6c38e54e.mp4 – 605.7 MB
2019-10-18_5da9e74ca094b41b7ab25.mp4 – 582.1 MB
2019-10-20_5dacd1bc9ac92706b9ca3.mp4 – 28.1 MB
2019-10-22_5dae4e74bb0fcdb37ff4c.mp4 – 45.2 MB
2019-10-23_5db0be1310b19ba17dca1.mp4 – 131.6 MB
2019-10-24_5db1450c97f62e8d24f1d.mp4 – 20.8 MB
2019-10-24_5db1f490427a85d001311.mp4 – 62.7 MB
2019-10-24_5db200c5aee0974b3fc42.mp4 – 31.9 MB
2019-10-25_5db38061173b8d36bc6e6.mp4 – 21.6 MB
2019-10-28_5db652015b3762baf34d1.mp4 – 506.2 MB
2019-10-28_ffac03c1e86984a016855e19aa41422d.mp4 – 2.7 MB
2019-10-30_5db9120e52a953bf043f7.mp4 – 46.5 MB
2019-10-30_5dba068ba60ff9a451f41.mp4 – 83.5 MB
2019-10-30_5dba193cd8c1cd3b23033.mp4 – 400.4 MB
2019-11-02_5dbde4d04f4249ad8c6c9.mp4 – 169.2 MB
2019-11-04_5dbf9f44aade48960fea0.mp4 – 212.2 MB
2019-11-04_5dbfd60d925a106290c24.mp4 – 589.0 MB
2019-11-04_5dbfdce4e6f5bdda7cde4.mp4 – 429.7 MB
2019-11-05_5dc1fa55387a29cd39334.mp4 – 315.1 MB
2019-11-07_5dc3a10bddabe9a53aebd.mp4 – 79.9 MB
2019-11-09_5dc6e55a1980efc1c26bf.mp4 – 847.8 MB
2019-11-09_fc5c3cf0a88ebd5613ce31bb2b6900c5.mp4 – 2.7 MB
2019-11-10_5dc83bdfbfc781ecd65cc.mp4 – 327.2 MB
2019-11-12_5dca44a9195665ed64ac7.mp4 – 80.8 MB
2019-11-13_5dcbc2c26cf768fc50a2f.mp4 – 612.4 MB
2019-11-15_5dcdecfe05caf9c660ccd.mp4 – 748.0 MB
2019-11-16_5dd0769e72c72d3fe93b0.mp4 – 484.6 MB
2019-11-17_5dd1dbd9b07841e3fd191.mp4 – 25.8 MB
2019-11-19_5dd343dc616eef19567d8.mp4 – 29.0 MB
2019-11-19_5dd344051cee897779ece.mp4 – 22.6 MB
2019-11-19_5dd34430d4ba46a67c6e7.mp4 – 29.0 MB
2019-11-20_5dd49adbbe616d0b8aab8.mp4 – 524.5 MB
2019-11-23_5dd90ad63159b2f673644.mp4 – 513.6 MB
2019-11-24_5ddaa1a32ff7540fdf87c.mp4 – 119.3 MB
2019-11-25_5ddbab05c3f0e3216356b.mp4 – 56.1 MB
2019-11-26_5ddc73b229dcc4b18f29f.mp4 – 274.7 MB
2019-11-26_5ddd0d43dd7d52c3bff02.mp4 – 44.4 MB
2019-11-26_5ddd0e355c884009ed158.mp4 – 54.7 MB
2019-11-27_5dde02ecec7eb11fe41c5.mp4 – 1009.9 MB
2019-12-01_5de370260b31f30165b6d.mp4 – 1.2 GB
2019-12-01_5de403ab6ebc822cc7efd.mp4 – 51.1 MB
2019-12-02_5de48321e65291acc89e3.mp4 – 51.2 MB
2019-12-03_a906a0125c867cd9ba690c55952001cd.mp4 – 2.8 MB
2019-12-06_5de9d4f5b4bff783145cb.mp4 – 796.8 MB
2019-12-06_5deab1716884ab046d535.mp4 – 72.2 MB
2019-12-09_5dede9e2037c7abd700dd.mp4 – 672.7 MB
2019-12-10_5df003bcefda7223f8aa2.mp4 – 102.0 MB
2019-12-11_5df045082a63eb10688bc.mp4 – 260.9 MB
2019-12-11_5df09393038e8738a6bf9.mp4 – 102.2 MB
2019-12-13_5df39320001a75e6094eb.mp4 – 104.7 MB
2019-12-14_5df45f9cf40d743b94747.mp4 – 408.5 MB
2019-12-15_5df5da2f1fb9019ed979f.mp4 – 219.5 MB
2019-12-15_5df5e0f188f01a4e0424f.mp4 – 120.4 MB
2019-12-16_5df6ec78c2488fc6270e0.mp4 – 682.7 MB
2019-12-16_6f1d6afd513a28d70c48f604a9affb4f.mp4 – 3.5 MB
2019-12-17_5df87b5a183edd2d9f2e4.mp4 – 419.2 MB
2019-12-17_5df89b674d7eb4d1d7ed2.mp4 – 1.0 GB
2019-12-19_5dfaf52141361d8cb87d2.mp4 – 105.2 MB
2019-12-20_5dfc3137b99c300101d28.mp4 – 64.2 MB
2019-12-20_5dfc318e8b5eb9618516e.mp4 – 73.3 MB
2019-12-20_5dfc392792f45180c51e9.mp4 – 63.0 MB
2019-12-22_5dfed08a49adf85c618aa.mp4 – 815.6 MB
2019-12-23_5e003f55d60dee64bb73d.mp4 – 855.0 MB
2019-12-26_5e0460c2eed481d565498.mp4 – 749.4 MB
2019-12-27_5e0676e63cf5f842c233b.mp4 – 71.7 MB
2019-12-27_5e067756cf715c22292a7.mp4 – 101.3 MB
2019-12-28_5e06c4430b84c7ffd1298.mp4 – 319.0 MB
2019-12-29_5e083a81865978145840d.mp4 – 1.1 GB
2019-12-30_5e0a896f9dfdcc6039096.mp4 – 347.2 MB
2019-12-31_5e0aa9c31a49798d32cbd.mp4 – 376.1 MB
2019-12-31_5e0bd48a7089712a1c178.mp4 – 726.3 MB
2020-01-01_2db01c1289c7da3555e5965a047ce6b2.mp4 – 2.8 MB
2020-01-01_5e0c032ff36ae0f467a6a.mp4 – 753.1 MB
2020-01-01_5e0d0e771885dfba40ef2.mp4 – 32.5 MB
2020-01-01_5e0d24c49db35e491c646.mp4 – 420.0 MB
2020-01-02_5e0e3f214a67e9bb13880.mp4 – 22.4 MB
2020-01-04_5e0fe55923936b2426e28.mp4 – 83.0 MB
2020-01-05_5e1173604e2ffd316b148.mp4 – 95.7 MB
2020-01-05_5e117f736ff0ab9625870.mp4 – 219.1 MB
2020-01-05_5e11832f5fdd17b739dd0.mp4 – 477.8 MB
2020-01-06_5e13b59d4ea97649a5b4b.mp4 – 628.7 MB
2020-01-07_5e14f0dca985e990ea98b.mp4 – 31.1 MB
2020-01-08_5e16169887a6509a1b324.mp4 – 73.3 MB
2020-01-09_5e179daa74e42e1ad2c13.mp4 – 384.4 MB
2020-01-09_UjTnjiD5PvM3gTG0rHjVKy9WW0pb2uTk.mp4 – 610.4 MB
2020-01-10_5e17e261313e0b639ed58.mp4 – 51.0 MB
2020-01-10_5e18224393863fa545558.mp4 – 858.4 MB
2020-01-10_5e18beded1df7b303772c.mp4 – 806.8 MB
2020-01-11_5e1a5669c3b260bbf7fe5.mp4 – 54.6 MB
2020-01-12_5e1ac50e7e2b83f6e2148.mp4 – 371.7 MB
2020-01-14_5e1d730fa274cbd920838.mp4 – 93.4 MB
2020-01-14_5e1d791a716a28937f456.mp4 – 59.3 MB
2020-01-14_5e1dee55f3bb722d0f4fd.mp4 – 465.6 MB
2020-01-16_5e20d6397f60323019b70.mp4 – 65.1 MB
2020-01-18_5e2376a246a733c90d9b0.mp4 – 461.4 MB
2020-01-21_5e276c6873cda6ed42ca1.mp4 – 96.9 MB
2020-01-23_5e291edfddf103383487b.mp4 – 199.0 MB
2020-01-26_5e2cd994c243bef0d91c2.mp4 – 152.0 MB
2020-01-27_5e2e3ec37996d8d8406bb.mp4 – 9.7 MB
2020-01-29_5e30f45313b476c0f3b4b.mp4 – 181.3 MB
2020-01-30_5e335d687cf3bb0e99d30.mp4 – 3.4 MB
2020-01-31_5e33c0dae9f056cbc0cc5.mp4 – 5.8 MB
2020-01-31_5e33c115c1b7f3f89a0bb.mp4 – 10.1 MB
2020-02-01_5e353150a89dcfca4f600.mp4 – 32.9 MB
2020-02-01_5e353a1252c07544899d1.mp4 – 70.1 MB
2020-02-01_5e35d7707d219879585b0.mp4 – 8.0 MB
2020-02-03_5e387b5239b23f3b7540f.mp4 – 2.8 MB
2020-02-04_5e3900ee8f9f2c5e83914.mp4 – 287.1 MB
2020-02-06_5e3ba9d1d24e112652cc2.mp4 – 174.7 MB
2020-02-11_5e423b7f543f09f3f209c.mp4 – 189.4 MB
2020-02-14_5e47019a6e62573e22c9f.mp4 – 200.2 MB
2020-02-18_5e4a0bd0ae83344eab575.mp4 – 115.4 MB
2020-02-18_5e4b96e24bec498a6abc3.mp4 – 72.5 MB
2020-02-18_5e4c6bd804bdcc495f507.mp4 – 1.5 MB
2020-02-21_5e4f23c913af563e98e44.mp4 – 2.9 MB
2020-02-21_5e4f59f985967c151f7e9.mp4 – 424.7 MB
2020-02-24_5e543b26375ae94119da3.mp4 – 1.6 MB
2020-02-25_5e54bcbb220ba0f62e24c.mp4 – 227.2 MB
2020-02-27_5e5841af229f0ac88377a.mp4 – 286.2 MB
2020-02-29_5e5aee3211d054d662340.mp4 – 6.0 MB
2020-03-02_5e5d95eddfa7af02fe8e2.mp4 – 1.5 MB
2020-03-03_5e5da09b51c4b0e2db8bf.mp4 – 6.1 MB
2020-03-04_5e601d0270e6fa270b772_source.mp4 – 4.8 MB
2020-03-05_5e613614ad518c0a5f30c_source.mp4 – 83.8 MB
2020-03-06_5e62998654e7a782270f8_source.mp4 – 7.3 MB
2020-03-06_5e62d56c2594eff2cff00_source.mp4 – 20.9 MB
2020-03-07_5e635f8b9619d260dd492_source.mp4 – 88.2 MB
2020-03-11_5e6843cda8cec0e513d37_source.mp4 – 85.5 MB
2020-03-13_5e6b0e3f67de10a584042_source.mp4 – 42.9 MB
2020-03-13_5e6bb93ac942ba8a699ed_source.mp4 – 4.2 MB
2020-03-13_5e6c083697031767241d4_source.mp4 – 7.9 MB
2020-03-15_5e6db960b66b2a8728dee_source.mp4 – 6.6 MB
2020-03-15_5e6dd4af50fedf7832c92_source.mp4 – 184.0 MB
2020-03-16_5e70010321b9492729b2e_source.mp4 – 7.0 MB
2020-03-17_5e703993c48f6fcb45987_source.mp4 – 211.2 MB
2020-03-17_5e7041f50df14605b5da8_source.mp4 – 8.6 MB
2020-03-18_5e719f088c54d82b250e8_source.mp4 – 68.5 MB
2020-03-18_5e719f354bcce3eaa904c_source.mp4 – 7.8 MB
2020-03-18_5e725cbfeeab8c5dc71b2_source.mp4 – 3.2 MB
2020-03-18_5e7299da1c6fa71909f18_source.mp4 – 11.8 MB
2020-03-19_5e72c14aa672290fbc9c9_source.mp4 – 75.5 MB
2020-03-20_5e7551948d887a0bdcb36_source.mp4 – 14.0 MB
2020-03-21_5e758206bb59e8a7bf709_source.mp4 – 116.5 MB
2020-03-22_5e759b8394172d4f936ed_source.mp4 – 218.5 MB
2020-03-22_5e759b8394172d4f936ed_source.mp4 – 218.5 MB
2020-03-22_5e759b8394172d4f936ed_source.mp4 – 218.5 MB
2020-03-22_5e76c102ac308110b67bd_source.mp4 – 7.7 MB
2020-03-23_5e7939f46543a5e3fc331_source.mp4 – 127.5 MB
2020-03-24_5e7a6848547f416fda9f6_source.mp4 – 132.8 MB
2020-03-26_5e7cee170322a41ad91b5_source.mp4 – 149.5 MB
2020-03-27_5e7e67ce6d3e24abfef13_source.mp4 – 15.7 MB
2020-03-27_5e7e78243f0368a4ad904_source.mp4 – 177.4 MB
2020-03-27_J8xE66zY1W6rK1uOy5g37q1lqytNCdAX.mp4 – 1001.6 MB
2020-03-28_5e7ea9f572ad305c5b699_source.mp4 – 7.9 MB
2020-03-28_5e7f7d71ba50a5cc4ca52_source.mp4 – 7.1 MB
2020-03-30_5e8182085649557cb1f87_source.mp4 – 81.3 MB
2020-03-30_5e82802c3be8203a42eba_source.mp4 – 117.2 MB
2020-03-31_5e82d31f1146552ca371d_source.mp4 – 6.7 MB
2020-03-31_5e82ea1d29d3a28f8c753_source.mp4 – 5.4 MB
2020-04-01_5e82ef89d6f19786e022c_source.mp4 – 132.8 MB
2020-04-02_5e8664c794982b0af6641_source.mp4 – 4.4 MB
2020-04-03_5e870d073b2c4004bbd54_source.mp4 – 232.5 MB
2020-04-04_5e88187cf401c1702bf0c_source.mp4 – 8.3 MB
2020-04-04_5e882fc9721e3d290b987_source.mp4 – 241.0 MB
2020-04-06_5e8b825ad2b121426de1e_source.mp4 – 3.4 MB
2020-04-07_5e8bc3cf34f73bd44cd78_source.mp4 – 395.8 MB
2020-04-07_5e8c0324d57f70047b7af_source.mp4 – 9.6 MB
2020-04-07_5e8d08df84dade662f4e0_source.mp4 – 9.7 MB
2020-04-07_sY1p1kanSrGI4eV1jOYGLR0RrgZ85C4N.mp4 – 1.7 GB
2020-04-08_5e8d7295847f6cae48a18_source.mp4 – 59.9 MB
2020-04-08_5e8e419e842727df31137_source.mp4 – 18.7 MB
2020-04-09_5e8eae1e3e6b47b0be3c9_source.mp4 – 621.0 MB
2020-04-09_CS7HSylDBOTv95BhsDrvJxU9gLyU9UBe.mp4 – 1.4 GB
2020-04-10_5e90dd254e7424673640d_source.mp4 – 238.4 MB
2020-04-10_d0RMaa8pbgJEgnO2wjvwsog7ANG1Gtl1.mp4 – 1.5 GB
2020-04-11_5e92277d8bb4103a5deb5_source.mp4 – 108.1 MB
2020-04-12_5e92aae0483a1e1c43023_source.mp4 – 12.9 MB
2020-04-12_w6tDiDPuLdxhYiOr81IVl2EzSUNeuSuf.mp4 – 1.9 GB
2020-04-13_5e9410af79b7cd2b27133_source.mp4 – 25.6 MB
2020-04-13_5e94a76fcf18601175f93_source.mp4 – 345.3 MB
2020-04-13_d0ReuqLRlqjic5RwaYBaT9LvCl0uPxAD.mp4 – 1.1 GB
2020-04-15_5e966322a1ca0a95592f4_source.mp4 – 67.3 MB
2020-04-15_5e96ad143c914dbcee002_source.mp4 – 129.5 MB
2020-04-16_5e97f1f5e4bcc4b3327f3_source.mp4 – 292.6 MB
2020-04-16_5e98aad08774a0e2903a3_source.mp4 – 13.6 MB
2020-04-18_5e9a96b8a2102f2096a8a_source.mp4 – 9.5 MB
2020-04-18_5e9aadf05c833760b4af7_source.mp4 – 271.1 MB
2020-04-19_iWvZuf9P1KRdVTzyOm03yUw3baK7TtPK.mp4 – 1.5 GB
2020-04-20_5e9cf35178439be243e7d_source.mp4 – 429.7 MB
2020-04-21_5e9eab8f220340b8c0356_source.mp4 – 25.6 MB
2020-04-21_7c1P8whsEsrPLAGSylFJ8hgUtZUltmc4.mp4 – 506.6 MB
2020-04-21_7J0zU0z48knwcw8Ht382ZaEc204yDJqM.mp4 – 482.4 MB
2020-04-22_5e9fd05c296b641e609f0_source.mp4 – 302.8 MB
2020-04-23_5ea1c7961fb5c6645fe63_source.mp4 – 44.5 MB
2020-04-23_5ea1c93f25c0be757e880_source.mp4 – 35.8 MB
2020-04-23_5ea203d237a08ef107825_source.mp4 – 10.3 MB
2020-04-24_5ea286217c1b898a17629_source.mp4 – 5.8 MB
2020-04-25_5ea40ab525f1789403717_source.mp4 – 154.2 MB
2020-04-26_5ea4d5392a7c9f9360b77_source.mp4 – 9.0 MB
2020-04-26_5ea4e1fbb224b38c7c747_source.mp4 – 396.2 MB
2020-04-26_cv7gsnjkJjsoAguXssvRtiPGzHLImvdv.mp4 – 1.0 GB
2020-04-27_5ea6612b290db91e6eaa6_source.mp4 – 84.9 MB
2020-04-27_5ea679d32acde18e57e52_source.mp4 – 37.5 MB
2020-04-27_5ea75b28932db20b5b214_source.mp4 – 65.5 MB
2020-04-27_c7mQyfjSlTBUP5jE4aQ3LRhFAfi5laTi.mp4 – 699.5 MB
2020-04-27_kInfRLGJ47AJdp12LHhzSYUF7qZ8Uyjd.mp4 – 175.8 MB
2020-04-28_5ea7de9939b1b9562061e_source.mp4 – 451.3 MB
2020-04-29_5ea9206e96ba99c1f90a4_source.mp4 – 242.9 MB
2020-04-29_5eaa06ea0da4a24d7ceec_source.mp4 – 258.5 MB
2020-04-30_I56MdhERHdhNe4TuWQHKQUYu6yIpEeL8.mp4 – 1.2 GB
2020-05-01_5eac72e9e943ab2e901d6_source.mp4 – 139.1 MB
2020-05-01_5eac72e9e943ab2e901d6_source.mp4 – 139.1 MB
2020-05-02_5ead33ebb08a260bf6a95_source.mp4 – 437.1 MB
2020-05-03_5eae1cc6ef94372e0fef1_source.mp4 – 8.4 MB
2020-05-03_5eae5bdcf22a007f84c6c_source.mp4 – 25.6 MB
2020-05-03_5eae6b32b171a184caed9_source.mp4 – 37.0 MB
2020-05-03_5eae77a4ea9b4efa5b8a3_source.mp4 – 313.4 MB
2020-05-04_5eafc48df0ffd3131922a_source.mp4 – 264.8 MB
2020-05-04_xL9ipBZ3CxqYlB0HlpYpJFKipmTrvGBl.mp4 – 1.1 GB
2020-05-05_5eb0b0ae9088734cb0412_source.mp4 – 48.9 MB
2020-05-06_5eb22fbd3f0a974a92da9_source.mp4 – 251.3 MB
2020-05-06_5eb343550a73e617fb6a5_source.mp4 – 16.1 MB
2020-05-07_5eb375d4b710d1f483170_source.mp4 – 200.0 MB
2020-05-08_5eb4f8aa45fc0341e8e22_source.mp4 – 89.6 MB
2020-05-08_5eb5d5c94817b7a650726_source.mp4 – 471.9 MB
2020-05-10_5eb70acc65cf357b3b747_source.mp4 – 475.4 MB
2020-05-10_5eb781a5833812f2268da_source.mp4 – 23.6 MB
2020-05-11_5eb9ce5786d329ede4b60_source.mp4 – 8.6 MB
2020-05-11_wlGWzKjIYzZ7c4UmSBWZ7pPNbE92Fwgf.mp4 – 943.9 MB
2020-05-12_5eba38f1d2322083160a9_source.mp4 – 255.7 MB
2020-05-12_5ebae0cd30d71bb7a9b53_source.mp4 – 355.1 MB
2020-05-13_5ebc3865064b66cacd8d6_source.mp4 – 27.8 MB
2020-05-14_5eb73d636ba4b221d4ea3_source.mp4 – 427.1 MB
2020-05-16_5eb7318be52618176c3ac_source.mp4 – 158.0 MB
2020-05-16_5ebb329bba4e3393e6d7b_source.mp4 – 483.5 MB
2020-05-18_5ec1ac53769f6055d3edb_source.mp4 – 444.2 MB
2020-05-18_5ec200582703778f4d853_source.mp4 – 11.4 MB
2020-05-19_5ec4462071074250e9cf6_source.mp4 – 12.3 MB
2020-05-20_5ec4734a099b7168914f2_source.mp4 – 22.0 MB
2020-05-20_5ec4a78412aee229a8611_source.mp4 – 36.7 MB
2020-05-21_5ec612a21464aa32d2ff0_source.mp4 – 390.5 MB
2020-05-22_5ec841dbc26ea9ad8b763_source.mp4 – 224.3 MB
2020-05-22_OfrxIvXriAfcNxqgcjwXReaf7aY5PQer.mp4 – 882.0 MB
2020-05-23_5ec89d55a89ebe7f0b246_source.mp4 – 14.8 MB
2020-05-23_5ec8cdd86b9b1ec9dbbc7_source.mp4 – 140.2 MB
2020-05-23_5ec99b8b2bedf968bcb33_source.mp4 – 22.9 MB
2020-05-23_5ec99bae2324693b42118_source.mp4 – 39.7 MB
2020-05-24_cg0mkmF5uabQsV8BbuuvHvuWPU85kqqB.mp4 – 1.6 GB
2020-05-25_5ec8790db89821ddd0464_source.mp4 – 420.9 MB
2020-05-26_5eccac81c1122ebd7bc40_source.mp4 – 10.0 MB
2020-05-27_5ecdfe9d643bcd2d0ffd5_source.mp4 – 195.9 MB
2020-05-28_5ecf13bed7b6db774cccb_source.mp4 – 906 KB
2020-05-29_5ed0b397464f55dd15a2a_source.mp4 – 266.3 MB
2020-05-29_5ed1676d2621904fa143b_source.mp4 – 14.0 MB
2020-05-29_BqOqWzDOZN1oNKsceiMlTx9qTMki8B2N.mp4 – 1.1 GB
2020-05-30_5ed2b3d2eb4f4f57f474f_source.mp4 – 338.6 MB
2020-06-01_5ed064a158fa056c2456b_source.mp4 – 125.1 MB
2020-06-01_rYO2KrP88oRjAgw3Pxs9ID2T0kSRgLb9.mp4 – 958.8 MB
2020-06-02_5ed053ff762d37e734c4c_source.mp4 – 227.8 MB
2020-06-02_5ed5c1bb7ed8d1d55108c_source.mp4 – 19.1 MB
2020-06-04_5ed02b05c9f5e21e3e360_source.mp4 – 359.7 MB
2020-06-04_5ed88af019a7438564bda_source.mp4 – 685.1 MB
2020-06-05_5ed9a53bb7028d3f02322_source.mp4 – 767.9 MB
2020-06-06_5edaeef645169b298287c_source.mp4 – 264.3 MB
2020-06-07_5edc7cf0e8a9c92066377_source.mp4 – 48.4 MB
2020-06-08_5eddb766de9abbf8c8b3f_source.mp4 – 9.2 MB
2020-06-08_5eddb7685411ccdbbb413_source.mp4 – 7.8 MB
2020-06-08_5eddce1912a2c4010778c_source.mp4 – 195.9 MB
2020-06-08_5edde6175c6ca4d03274e_source.mp4 – 196.1 MB

PornHub – Jewelz Blu – Siterip – Ubiqfile

13 clips – 3.33 GB

Videos on ubiqfile.com:

Anal Training Baby Gape.mp4 – 138.5 MB
Hitachi Tease.mp4 – 31.0 MB
Jewelz Blu Gets Creampied 3x.mp4 – 304.9 MB
Jewelz Gets Fucked by a Big Cock POV.mp4 – 21.7 MB
Leda and Jewelz Hot Lesbian Hookup.mp4 – 658.1 MB
Lesbian Hookup.mp4 – 387.3 MB
Lesbians Fuck for America.mp4 – 99.3 MB
POV BJ Compilation with Swallow.mp4 – 409.1 MB
POV Snapchat Sloppy Blowjob Facial with Jewelz Blu.mp4 – 226.6 MB
Pussy Eating Fun with Alix Lynx.mp4 – 125.1 MB
Sensual Lesbian Maid Playtime.mp4 – 111.3 MB
Slutty Blue Haired Babe Gets Fucked POV.mp4 – 543.0 MB
Solo Hitachi Butt Plug Play HD.mp4 – 349.5 MB